createdAt,value
2023-02-02T00:00:23.481Z,5.32
2023-02-02T00:01:27.030Z,5.55
2023-02-02T00:02:30.253Z,5.15
2023-02-02T00:03:33.188Z,3.92
2023-02-02T00:04:37.044Z,5.47
2023-02-02T00:05:39.810Z,5.40
2023-02-02T00:06:46.326Z,4.07
2023-02-02T00:07:49.108Z,5.55
2023-02-02T00:08:56.293Z,3.60
2023-02-02T00:09:59.091Z,4.68
2023-02-02T00:11:02.123Z,4.80
2023-02-02T00:12:05.140Z,4.63
2023-02-02T00:13:07.975Z,3.67
2023-02-02T00:14:13.895Z,5.05
2023-02-02T00:15:16.898Z,4.07
2023-02-02T00:16:42.732Z,4.78
2023-02-02T00:17:45.587Z,3.42
2023-02-02T00:18:49.668Z,4.90
2023-02-02T00:19:52.597Z,5.22
2023-02-02T00:20:55.417Z,5.30
2023-02-02T00:21:58.653Z,5.50
2023-02-02T00:23:02.100Z,4.65
2023-02-02T00:24:07.294Z,3.63
2023-02-02T00:25:10.549Z,3.17
2023-02-02T00:26:13.528Z,4.50
2023-02-02T00:27:16.399Z,5.05
2023-02-02T00:28:19.220Z,3.20
2023-02-02T00:29:25.196Z,2.90
2023-02-02T00:30:28.184Z,3.22
2023-02-02T00:31:31.255Z,4.50
2023-02-02T00:32:34.367Z,4.63
2023-02-02T00:33:38.320Z,5.15
2023-02-02T00:34:41.222Z,3.90
2023-02-02T00:35:44.056Z,3.30
2023-02-02T00:36:47.835Z,4.75
2023-02-02T00:37:50.617Z,3.13
2023-02-02T00:38:53.825Z,4.28
2023-02-02T00:39:56.621Z,2.88
2023-02-02T00:40:59.575Z,3.63
2023-02-02T00:42:02.428Z,4.20
2023-02-02T00:43:05.291Z,4.65
2023-02-02T00:44:26.800Z,2.58
2023-02-02T00:45:30.188Z,4.70
2023-02-02T00:46:33.061Z,4.20
2023-02-02T00:47:36.851Z,3.72
2023-02-02T00:48:39.751Z,3.10
2023-02-02T00:49:42.673Z,4.32
2023-02-02T00:50:46.096Z,4.72
2023-02-02T00:51:48.965Z,3.90
2023-02-02T00:52:51.840Z,2.85
2023-02-02T00:53:54.686Z,2.60
2023-02-02T00:54:58.431Z,4.25
2023-02-02T00:56:01.485Z,4.22
2023-02-02T00:57:04.499Z,3.53
2023-02-02T00:58:07.338Z,4.45
2023-02-02T00:59:10.114Z,2.72
2023-02-02T01:00:16.032Z,2.25
2023-02-02T01:01:21.876Z,4.00
2023-02-02T01:02:24.816Z,3.08
2023-02-02T01:03:27.667Z,3.90
2023-02-02T01:04:30.665Z,3.40
2023-02-02T01:05:36.624Z,3.60
2023-02-02T01:06:39.625Z,3.67
2023-02-02T01:07:43.276Z,2.58
2023-02-02T01:08:46.195Z,2.35
2023-02-02T01:09:52.043Z,2.22
2023-02-02T01:10:54.889Z,3.30
2023-02-02T01:11:58.766Z,3.88
2023-02-02T01:13:01.772Z,3.42
2023-02-02T01:14:06.912Z,3.15
2023-02-02T01:15:12.129Z,2.70
2023-02-02T01:16:16.180Z,3.10
2023-02-02T01:17:19.615Z,3.45
2023-02-02T01:18:22.425Z,2.88
2023-02-02T01:19:26.774Z,2.05
2023-02-02T01:20:29.691Z,2.10
2023-02-02T01:21:32.852Z,3.10
2023-02-02T01:22:35.690Z,3.53
2023-02-02T01:23:39.482Z,3.20
2023-02-02T01:24:42.264Z,1.85
2023-02-02T01:25:46.188Z,2.67
2023-02-02T01:26:52.165Z,3.50
2023-02-02T01:27:55.013Z,3.00
2023-02-02T01:28:58.075Z,1.70
2023-02-02T01:30:00.925Z,3.15
2023-02-02T01:31:13.829Z,3.05
2023-02-02T01:32:16.874Z,2.47
2023-02-02T01:33:20.491Z,2.75
2023-02-02T01:34:25.930Z,2.47
2023-02-02T01:35:28.752Z,1.70
2023-02-02T01:36:31.777Z,1.90
2023-02-02T01:37:34.600Z,1.50
2023-02-02T01:38:37.744Z,1.77
2023-02-02T01:39:40.532Z,2.28
2023-02-02T01:40:53.501Z,2.17
2023-02-02T01:41:56.423Z,1.40
2023-02-02T01:42:59.273Z,1.75
2023-02-02T01:44:07.154Z,3.08
2023-02-02T01:45:21.697Z,1.40
2023-02-02T01:46:32.877Z,2.53
2023-02-02T01:47:43.983Z,2.13
2023-02-02T01:48:59.587Z,2.22
2023-02-02T01:50:04.853Z,1.30
2023-02-02T01:51:11.738Z,1.30
2023-02-02T01:52:16.632Z,1.17
2023-02-02T01:53:20.965Z,2.35
2023-02-02T01:54:39.080Z,2.10
2023-02-02T01:55:42.588Z,2.10
2023-02-02T01:56:55.711Z,1.50
2023-02-02T01:58:04.106Z,2.47
2023-02-02T01:59:07.951Z,2.20
2023-02-02T02:00:16.169Z,1.02
2023-02-02T02:01:19.120Z,2.20
2023-02-02T02:02:22.235Z,2.67
2023-02-02T02:03:32.147Z,1.92
2023-02-02T02:04:35.820Z,1.65
2023-02-02T02:05:51.641Z,2.40
2023-02-02T02:06:54.652Z,1.30
2023-02-02T02:08:12.622Z,1.20
2023-02-02T02:09:18.235Z,1.08
2023-02-02T02:10:21.117Z,1.02
2023-02-02T02:11:25.115Z,2.15
2023-02-02T02:12:28.090Z,2.08
2023-02-02T02:13:51.337Z,2.10
2023-02-02T02:15:13.857Z,2.30
2023-02-02T02:16:29.016Z,0.93
2023-02-02T02:17:40.718Z,0.93
2023-02-02T02:19:28.666Z,1.67
2023-02-02T02:21:08.096Z,1.92
2023-02-02T02:22:38.901Z,1.10
2023-02-02T02:24:31.847Z,1.00
2023-02-02T02:26:20.170Z,1.88
2023-02-02T02:27:34.790Z,0.90
2023-02-02T02:29:12.072Z,1.90
2023-02-02T02:30:59.656Z,2.25
2023-02-02T02:32:19.384Z,2.00
2023-02-02T02:34:01.663Z,0.77
2023-02-02T02:35:14.117Z,2.33
2023-02-02T02:36:37.931Z,1.02
2023-02-02T02:37:59.397Z,2.40
2023-02-02T02:39:11.290Z,1.35
2023-02-02T02:40:20.091Z,2.05
2023-02-02T02:41:30.612Z,1.90
2023-02-02T02:42:38.279Z,2.03
2023-02-02T02:43:48.453Z,0.43
2023-02-02T02:44:52.057Z,1.65
2023-02-02T02:45:55.299Z,2.35
2023-02-02T02:46:58.603Z,2.10
2023-02-02T02:48:03.525Z,2.10
2023-02-02T02:49:10.044Z,1.73
2023-02-02T02:50:12.947Z,1.10
2023-02-02T02:51:46.311Z,0.80
2023-02-02T02:53:28.382Z,1.83
2023-02-02T02:54:41.527Z,0.65
2023-02-02T02:55:54.830Z,1.75
2023-02-02T02:57:40.365Z,1.45
2023-02-02T02:59:33.847Z,1.30
2023-02-02T03:01:12.859Z,1.88
2023-02-02T03:02:43.639Z,1.65
2023-02-02T03:03:58.798Z,0.80
2023-02-02T03:05:25.530Z,1.35
2023-02-02T03:06:41.151Z,2.45
2023-02-02T03:07:51.045Z,1.98
2023-02-02T03:09:04.951Z,1.02
2023-02-02T03:10:12.133Z,0.75
2023-02-02T03:11:16.153Z,1.30
2023-02-02T03:12:19.085Z,2.53
2023-02-02T03:13:22.129Z,1.58
2023-02-02T03:14:25.015Z,0.90
2023-02-02T03:15:27.782Z,1.77
2023-02-02T03:16:30.631Z,2.20
2023-02-02T03:17:33.459Z,1.63
2023-02-02T03:18:36.745Z,1.98
2023-02-02T03:19:41.967Z,1.52
2023-02-02T03:20:46.373Z,2.22
2023-02-02T03:21:49.141Z,0.95
2023-02-02T03:22:51.985Z,2.40
2023-02-02T03:23:54.787Z,2.15
2023-02-02T03:24:59.754Z,1.48
2023-02-02T03:26:04.684Z,1.83
2023-02-02T03:27:07.548Z,1.98
2023-02-02T03:28:10.412Z,1.83
2023-02-02T03:29:16.400Z,2.45
2023-02-02T03:30:19.662Z,2.60
2023-02-02T03:31:22.706Z,2.30
2023-02-02T03:32:25.820Z,1.88
2023-02-02T03:33:29.097Z,0.90
2023-02-02T03:34:31.927Z,1.90
2023-02-02T03:35:34.830Z,2.10
2023-02-02T03:36:37.621Z,1.00
2023-02-02T03:37:40.501Z,0.90
2023-02-02T03:38:43.496Z,2.17
2023-02-02T03:39:46.291Z,1.85
2023-02-02T03:40:49.155Z,1.95
2023-02-02T03:41:52.070Z,0.80
2023-02-02T03:42:55.812Z,1.98
2023-02-02T03:43:58.961Z,1.83
2023-02-02T03:45:01.929Z,1.75
2023-02-02T03:46:06.669Z,1.00
2023-02-02T03:47:09.771Z,1.70
2023-02-02T03:48:12.702Z,0.70
2023-02-02T03:49:15.583Z,1.25
2023-02-02T03:50:18.418Z,1.02
2023-02-02T03:51:21.282Z,1.85
2023-02-02T03:52:24.767Z,2.05
2023-02-02T03:53:27.595Z,2.30
2023-02-02T03:54:30.683Z,2.10
2023-02-02T03:55:33.538Z,2.25
2023-02-02T03:56:36.369Z,0.93
2023-02-02T03:57:39.267Z,2.28
2023-02-02T03:58:42.039Z,2.28
2023-02-02T03:59:44.851Z,2.45
2023-02-02T04:00:49.826Z,1.48
2023-02-02T04:01:52.657Z,1.02
2023-02-02T04:02:55.646Z,2.13
2023-02-02T04:03:59.056Z,1.00
2023-02-02T04:05:01.910Z,2.28
2023-02-02T04:06:04.800Z,1.10
2023-02-02T04:07:07.623Z,2.10
2023-02-02T04:08:10.547Z,1.63
2023-02-02T04:09:13.343Z,1.20
2023-02-02T04:10:16.642Z,1.65
2023-02-02T04:11:19.549Z,1.67
2023-02-02T04:12:22.341Z,2.85
2023-02-02T04:13:27.278Z,2.58
2023-02-02T04:14:30.097Z,3.13
2023-02-02T04:15:32.910Z,2.53
2023-02-02T04:16:37.900Z,0.90
2023-02-02T04:17:40.831Z,1.27
2023-02-02T04:18:43.697Z,1.83
2023-02-02T04:19:47.177Z,2.28
2023-02-02T04:20:50.056Z,2.50
2023-02-02T04:21:54.198Z,1.73
2023-02-02T04:22:56.987Z,2.22
2023-02-02T04:24:00.092Z,1.10
2023-02-02T04:25:02.943Z,1.77
2023-02-02T04:26:06.402Z,0.90
2023-02-02T04:27:09.182Z,1.77
2023-02-02T04:28:14.331Z,2.42
2023-02-02T04:29:17.155Z,3.13
2023-02-02T04:30:20.378Z,1.77
2023-02-02T04:31:23.173Z,1.20
2023-02-02T04:32:26.025Z,2.38
2023-02-02T04:33:29.578Z,2.25
2023-02-02T04:34:32.487Z,1.10
2023-02-02T04:35:35.609Z,1.80
2023-02-02T04:36:40.613Z,2.70
2023-02-02T04:37:45.983Z,0.90
2023-02-02T04:38:52.847Z,2.65
2023-02-02T04:39:55.617Z,1.05
2023-02-02T04:40:58.521Z,2.38
2023-02-02T04:42:03.653Z,2.22
2023-02-02T04:43:06.535Z,2.17
2023-02-02T04:44:15.624Z,2.83
2023-02-02T04:45:18.510Z,1.98
2023-02-02T04:46:21.274Z,1.38
2023-02-02T04:47:24.307Z,1.88
2023-02-02T04:48:27.097Z,1.30
2023-02-02T04:49:32.226Z,1.65
2023-02-02T04:50:36.221Z,1.23
2023-02-02T04:51:40.136Z,2.55
2023-02-02T04:52:42.928Z,2.90
2023-02-02T04:53:46.242Z,1.15
2023-02-02T04:54:51.146Z,2.33
2023-02-02T04:55:54.034Z,2.95
2023-02-02T04:56:56.941Z,2.70
2023-02-02T04:57:59.732Z,1.02
2023-02-02T04:59:02.615Z,2.08
2023-02-02T05:00:06.619Z,1.25
2023-02-02T05:01:19.995Z,0.95
2023-02-02T05:03:27.656Z,1.10
2023-02-02T05:04:30.612Z,2.25
2023-02-02T05:05:33.655Z,1.58
2023-02-02T05:06:36.444Z,2.10
2023-02-02T05:07:40.513Z,2.30
2023-02-02T05:08:43.869Z,1.30
2023-02-02T05:09:46.688Z,2.47
2023-02-02T05:10:50.470Z,2.78
2023-02-02T05:11:53.256Z,1.95
2023-02-02T05:12:56.512Z,1.40
2023-02-02T05:13:59.274Z,1.55
2023-02-02T05:15:03.665Z,3.35
2023-02-02T05:16:07.595Z,3.03
2023-02-02T05:17:13.460Z,1.45
2023-02-02T05:18:16.488Z,2.40
2023-02-02T05:19:19.347Z,3.05
2023-02-02T05:20:22.097Z,1.38
2023-02-02T05:21:25.538Z,2.40
2023-02-02T05:22:28.343Z,2.58
2023-02-02T05:23:32.439Z,1.30
2023-02-02T05:24:37.661Z,2.83
2023-02-02T05:25:40.490Z,1.23
2023-02-02T05:26:43.259Z,1.38
2023-02-02T05:27:47.007Z,1.40
2023-02-02T05:28:50.141Z,1.05
2023-02-02T05:29:53.019Z,1.45
2023-02-02T05:30:55.863Z,2.10
2023-02-02T05:31:58.976Z,2.42
2023-02-02T05:33:01.797Z,1.88
2023-02-02T05:34:07.047Z,2.08
2023-02-02T05:35:12.723Z,3.13
2023-02-02T05:36:16.177Z,1.30
2023-02-02T05:37:19.008Z,2.40
2023-02-02T05:38:21.929Z,3.75
2023-02-02T05:39:24.690Z,2.83
2023-02-02T05:40:27.580Z,2.10
2023-02-02T05:41:32.535Z,1.63
2023-02-02T05:42:35.359Z,1.23
2023-02-02T05:43:38.228Z,3.30
2023-02-02T05:44:41.047Z,3.00
2023-02-02T05:45:43.916Z,2.97
2023-02-02T05:46:46.822Z,2.60
2023-02-02T05:47:49.926Z,2.70
2023-02-02T05:48:53.194Z,2.47
2023-02-02T05:49:57.010Z,1.20
2023-02-02T05:51:05.970Z,1.48
2023-02-02T05:52:15.729Z,1.13
2023-02-02T05:53:18.641Z,1.63
2023-02-02T05:54:22.107Z,1.40
2023-02-02T05:55:25.332Z,2.13
2023-02-02T05:56:28.257Z,1.17
2023-02-02T05:57:31.143Z,2.65
2023-02-02T05:58:33.940Z,1.10
2023-02-02T05:59:36.812Z,2.13
2023-02-02T06:00:39.630Z,1.25
2023-02-02T06:01:42.671Z,2.33
2023-02-02T06:02:45.574Z,2.70
2023-02-02T06:03:48.889Z,1.20
2023-02-02T06:04:51.792Z,2.08
2023-02-02T06:05:54.666Z,1.50
2023-02-02T06:06:57.636Z,1.20
2023-02-02T06:08:00.737Z,1.48
2023-02-02T06:09:03.881Z,1.42
2023-02-02T06:10:09.617Z,1.42
2023-02-02T06:11:17.217Z,1.20
2023-02-02T06:12:20.151Z,3.72
2023-02-02T06:13:23.257Z,2.55
2023-02-02T06:14:26.185Z,2.38
2023-02-02T06:15:29.632Z,1.52
2023-02-02T06:16:41.134Z,1.60
2023-02-02T06:17:46.067Z,1.38
2023-02-02T06:18:48.926Z,2.05
2023-02-02T06:19:51.717Z,2.40
2023-02-02T06:20:58.889Z,2.47
2023-02-02T06:22:01.720Z,2.45
2023-02-02T06:23:07.408Z,1.60
2023-02-02T06:24:10.279Z,2.25
2023-02-02T06:25:13.152Z,2.38
2023-02-02T06:26:19.644Z,2.45
2023-02-02T06:27:22.601Z,2.33
2023-02-02T06:28:25.494Z,1.30
2023-02-02T06:29:28.334Z,2.25
2023-02-02T06:30:31.157Z,2.47
2023-02-02T06:31:34.466Z,2.45
2023-02-02T06:32:37.565Z,1.67
2023-02-02T06:33:40.462Z,2.45
2023-02-02T06:34:45.797Z,2.42
2023-02-02T06:35:48.661Z,2.58
2023-02-02T06:36:51.432Z,1.40
2023-02-02T06:37:59.978Z,2.75
2023-02-02T06:39:06.179Z,2.50
2023-02-02T06:40:09.887Z,2.78
2023-02-02T06:41:12.651Z,1.85
2023-02-02T06:42:21.631Z,1.17
2023-02-02T06:43:24.795Z,2.85
2023-02-02T06:44:28.044Z,1.58
2023-02-02T06:45:33.866Z,2.70
2023-02-02T06:46:36.875Z,1.55
2023-02-02T06:47:42.283Z,2.53
2023-02-02T06:48:46.152Z,2.95
2023-02-02T06:49:49.024Z,1.50
2023-02-02T06:50:54.223Z,1.42
2023-02-02T06:51:57.040Z,2.90
2023-02-02T06:53:02.439Z,3.35
2023-02-02T06:54:05.475Z,2.95
2023-02-02T06:55:13.257Z,2.58
2023-02-02T06:56:23.144Z,2.42
2023-02-02T06:57:25.949Z,1.08
2023-02-02T06:58:30.195Z,1.20
2023-02-02T06:59:33.045Z,2.88
2023-02-02T07:00:38.419Z,2.42
2023-02-02T07:01:41.382Z,1.70
2023-02-02T07:02:47.487Z,2.25
2023-02-02T07:03:53.908Z,2.75
2023-02-02T07:04:56.680Z,2.63
2023-02-02T07:05:59.807Z,1.70
2023-02-02T07:07:02.720Z,2.33
2023-02-02T07:08:08.299Z,2.90
2023-02-02T07:09:11.110Z,1.35
2023-02-02T07:11:13.122Z,2.60
2023-02-02T07:11:40.434Z,1.55
2023-02-02T07:12:48.207Z,2.60
2023-02-02T07:13:51.026Z,1.40
2023-02-02T07:14:54.406Z,2.28
2023-02-02T07:15:58.415Z,2.50
2023-02-02T07:17:01.286Z,1.42
2023-02-02T07:18:06.390Z,2.47
2023-02-02T07:19:09.585Z,1.27
2023-02-02T07:20:12.611Z,1.20
2023-02-02T07:21:21.355Z,2.47
2023-02-02T07:22:24.258Z,1.23
2023-02-02T07:23:28.613Z,1.33
2023-02-02T07:24:31.412Z,1.10
2023-02-02T07:25:34.295Z,1.30
2023-02-02T07:26:37.286Z,1.80
2023-02-02T07:27:40.177Z,1.23
2023-02-02T07:28:43.795Z,2.03
2023-02-02T07:29:46.624Z,1.58
2023-02-02T07:30:49.494Z,1.98
2023-02-02T07:31:57.493Z,1.63
2023-02-02T07:33:05.414Z,1.20
2023-02-02T07:34:11.321Z,1.30
2023-02-02T07:35:14.378Z,1.20
2023-02-02T07:36:20.023Z,2.63
2023-02-02T07:37:22.813Z,1.45
2023-02-02T07:38:25.714Z,1.38
2023-02-02T07:39:28.499Z,1.48
2023-02-02T07:40:31.336Z,1.05
2023-02-02T07:41:38.350Z,1.33
2023-02-02T07:42:50.112Z,1.48
2023-02-02T07:43:53.029Z,1.30
2023-02-02T07:44:55.911Z,1.45
2023-02-02T07:46:03.052Z,1.33
2023-02-02T07:47:05.952Z,2.50
2023-02-02T07:48:08.747Z,1.38
2023-02-02T07:49:16.111Z,1.45
2023-02-02T07:50:24.023Z,1.50
2023-02-02T07:51:26.974Z,1.40
2023-02-02T07:52:30.635Z,1.70
2023-02-02T07:53:33.942Z,1.58
2023-02-02T07:54:36.733Z,1.50
2023-02-02T07:55:39.584Z,1.90
2023-02-02T07:56:42.374Z,1.63
2023-02-02T07:57:45.249Z,1.75
2023-02-02T07:58:48.656Z,1.38
2023-02-02T07:59:52.573Z,1.40
2023-02-02T08:00:55.422Z,1.45
2023-02-02T08:01:58.341Z,1.98
2023-02-02T08:03:01.186Z,1.30
2023-02-02T08:04:13.595Z,1.30
2023-02-02T08:05:16.775Z,1.23
2023-02-02T08:06:25.518Z,1.73
2023-02-02T08:07:28.494Z,2.55
2023-02-02T08:08:31.321Z,1.50
2023-02-02T08:09:34.199Z,2.80
2023-02-02T08:10:37.009Z,1.20
2023-02-02T08:11:41.988Z,1.60
2023-02-02T08:12:44.838Z,1.30
2023-02-02T08:13:55.839Z,1.65
2023-02-02T08:14:59.332Z,1.40
2023-02-02T08:16:02.262Z,1.70
2023-02-02T08:17:05.143Z,1.50
2023-02-02T08:18:08.061Z,1.42
2023-02-02T08:19:11.648Z,1.48
2023-02-02T08:20:14.553Z,1.35
2023-02-02T08:21:21.239Z,1.25
2023-02-02T08:22:24.070Z,1.20
2023-02-02T08:23:27.933Z,1.13
2023-02-02T08:24:30.755Z,1.20
2023-02-02T08:25:33.561Z,1.42
2023-02-02T08:26:36.397Z,1.13
2023-02-02T08:27:39.213Z,1.30
2023-02-02T08:28:43.838Z,1.27
2023-02-02T08:29:46.918Z,1.27
2023-02-02T08:30:49.765Z,1.50
2023-02-02T08:31:54.922Z,1.40
2023-02-02T08:32:57.792Z,1.45
2023-02-02T08:34:00.724Z,1.55
2023-02-02T08:35:03.674Z,1.33
2023-02-02T08:36:14.259Z,1.15
2023-02-02T08:37:17.041Z,1.55
2023-02-02T08:38:19.941Z,1.42
2023-02-02T08:39:25.424Z,1.50
2023-02-02T08:40:28.404Z,1.52
2023-02-02T08:41:31.348Z,1.45
2023-02-02T08:42:34.240Z,1.52
2023-02-02T08:43:38.365Z,1.25
2023-02-02T08:46:00.055Z,2.00
2023-02-02T08:46:05.860Z,1.83
2023-02-02T08:47:08.884Z,1.65
2023-02-02T08:48:13.077Z,1.60
2023-02-02T08:49:16.112Z,1.40
2023-02-02T08:50:18.933Z,1.05
2023-02-02T08:51:21.807Z,1.58
2023-02-02T08:52:25.816Z,1.42
2023-02-02T08:53:29.145Z,1.08
2023-02-02T08:54:31.967Z,1.38
2023-02-02T08:55:34.811Z,1.95
2023-02-02T08:56:37.635Z,1.48
2023-02-02T08:57:40.706Z,1.27
2023-02-02T08:58:52.222Z,1.10
2023-02-02T08:59:55.110Z,1.45
2023-02-02T09:01:25.437Z,1.45
2023-02-02T09:02:28.430Z,1.15
2023-02-02T09:03:31.281Z,0.88
2023-02-02T09:04:34.132Z,1.10
2023-02-02T09:05:38.754Z,1.00
2023-02-02T09:06:42.286Z,0.93
2023-02-02T09:07:45.867Z,1.25
2023-02-02T09:08:51.349Z,0.93
2023-02-02T09:09:55.983Z,1.40
2023-02-02T09:11:04.154Z,1.50
2023-02-02T09:12:07.398Z,1.00
2023-02-02T09:13:10.213Z,1.10
2023-02-02T09:14:16.958Z,2.22
2023-02-02T09:15:23.636Z,1.02
2023-02-02T09:16:27.998Z,1.27
2023-02-02T09:17:30.992Z,1.05
2023-02-02T09:18:33.836Z,1.40
2023-02-02T09:19:36.786Z,1.08
2023-02-02T09:20:41.870Z,1.35
2023-02-02T09:21:44.716Z,0.82
2023-02-02T09:22:47.494Z,1.13
2023-02-02T09:23:51.585Z,1.02
2023-02-02T09:24:54.467Z,1.20
2023-02-02T09:25:57.521Z,1.20
2023-02-02T09:27:00.388Z,1.33
2023-02-02T09:28:03.280Z,1.20
2023-02-02T09:29:11.983Z,1.20
2023-02-02T09:30:15.218Z,1.10
2023-02-02T09:31:18.251Z,1.00
2023-02-02T09:32:21.188Z,1.05
2023-02-02T09:33:26.479Z,1.00
2023-02-02T09:34:29.479Z,1.00
2023-02-02T09:35:32.281Z,1.20
2023-02-02T09:36:37.726Z,1.70
2023-02-02T09:37:40.616Z,0.98
2023-02-02T09:38:44.303Z,1.38
2023-02-02T09:39:47.077Z,1.20
2023-02-02T09:40:50.135Z,1.23
2023-02-02T09:41:56.211Z,1.30
2023-02-02T09:43:26.137Z,1.45
2023-02-02T09:44:58.064Z,1.02
2023-02-02T09:46:00.989Z,1.27
2023-02-02T09:47:16.235Z,0.73
2023-02-02T09:48:39.398Z,0.95
2023-02-02T09:49:48.107Z,1.10
2023-02-02T09:50:56.251Z,1.27
2023-02-02T09:52:10.330Z,1.10
2023-02-02T09:53:36.595Z,0.90
2023-02-02T09:54:47.344Z,1.23
2023-02-02T09:55:53.054Z,1.00
2023-02-02T09:56:58.886Z,0.80
2023-02-02T09:58:20.674Z,1.25
2023-02-02T09:59:31.426Z,1.05
2023-02-02T10:00:41.000Z,1.10
2023-02-02T10:01:45.575Z,1.10
2023-02-02T10:02:50.868Z,1.00
2023-02-02T10:04:14.353Z,1.38
2023-02-02T10:05:27.136Z,1.38
2023-02-02T10:06:35.325Z,1.10
2023-02-02T10:07:41.725Z,1.27
2023-02-02T10:08:58.104Z,1.33
2023-02-02T10:10:11.391Z,1.13
2023-02-02T10:12:36.416Z,1.00
2023-02-02T10:13:43.855Z,1.08
2023-02-02T10:16:11.493Z,0.98
2023-02-02T10:17:41.572Z,1.17
2023-02-02T10:18:56.504Z,1.15
2023-02-02T10:20:06.377Z,0.85
2023-02-02T10:21:19.970Z,0.98
2023-02-02T10:22:28.323Z,0.95
2023-02-02T10:23:37.925Z,1.08
2023-02-02T10:24:43.380Z,1.48
2023-02-02T10:26:12.372Z,0.93
2023-02-02T10:27:17.981Z,1.05
2023-02-02T10:28:23.749Z,0.90
2023-02-02T10:29:48.582Z,1.00
2023-02-02T10:31:01.029Z,0.82
2023-02-02T10:32:26.116Z,1.00
2023-02-02T10:34:02.524Z,1.00
2023-02-02T10:35:28.730Z,1.10
2023-02-02T10:37:03.835Z,1.27
2023-02-02T10:38:37.894Z,0.80
2023-02-02T10:39:59.185Z,1.10
2023-02-02T10:41:07.957Z,1.08
2023-02-02T10:42:34.959Z,1.02
2023-02-02T10:44:16.397Z,1.02
2023-02-02T10:45:21.537Z,1.15
2023-02-02T10:46:36.155Z,0.90
2023-02-02T10:47:39.320Z,0.75
2023-02-02T10:48:48.898Z,1.20
2023-02-02T10:50:14.197Z,1.02
2023-02-02T10:52:37.193Z,0.95
2023-02-02T10:55:19.156Z,1.02
2023-02-02T10:56:47.275Z,0.63
2023-02-02T10:57:59.022Z,0.93
2023-02-02T10:59:12.587Z,0.75
2023-02-02T11:00:23.331Z,0.98
2023-02-02T11:01:26.540Z,0.98
2023-02-02T11:02:29.378Z,0.80
2023-02-02T11:03:33.368Z,0.90
2023-02-02T11:04:54.954Z,0.90
2023-02-02T11:06:18.839Z,1.15
2023-02-02T11:07:21.850Z,0.82
2023-02-02T11:08:44.609Z,1.30
2023-02-02T11:09:47.673Z,0.85
2023-02-02T11:10:55.268Z,1.60
2023-02-02T11:12:04.320Z,1.02
2023-02-02T11:13:12.965Z,0.82
2023-02-02T11:14:30.339Z,0.93
2023-02-02T11:15:33.168Z,0.90
2023-02-02T11:16:43.573Z,0.70
2023-02-02T11:17:49.082Z,0.95
2023-02-02T11:18:51.932Z,1.20
2023-02-02T11:19:57.500Z,0.93
2023-02-02T11:21:00.486Z,0.60
2023-02-02T11:22:04.689Z,0.90
2023-02-02T11:23:07.875Z,0.75
2023-02-02T11:24:36.741Z,0.70
2023-02-02T11:25:40.559Z,0.85
2023-02-02T11:26:48.298Z,1.13
2023-02-02T11:27:51.856Z,0.88
2023-02-02T11:28:56.553Z,0.60
2023-02-02T11:30:01.609Z,0.63
2023-02-02T11:31:04.981Z,1.05
2023-02-02T11:32:28.726Z,0.80
2023-02-02T11:33:34.105Z,0.60
2023-02-02T11:34:36.918Z,1.00
2023-02-02T11:35:54.161Z,0.88
2023-02-02T11:37:23.806Z,0.70
2023-02-02T11:38:27.773Z,0.88
2023-02-02T11:39:30.833Z,0.70
2023-02-02T11:40:43.019Z,1.15
2023-02-02T11:41:45.837Z,1.67
2023-02-02T11:42:49.165Z,1.10
2023-02-02T11:43:55.411Z,0.80
2023-02-02T11:44:59.785Z,1.00
2023-02-02T11:46:06.072Z,0.80
2023-02-02T11:47:20.587Z,1.23
2023-02-02T11:48:28.392Z,0.82
2023-02-02T11:49:42.800Z,1.05
2023-02-02T11:50:51.985Z,1.27
2023-02-02T11:52:06.752Z,0.82
2023-02-02T11:53:25.559Z,0.60
2023-02-02T11:54:33.860Z,0.70
2023-02-02T11:55:36.751Z,1.02
2023-02-02T11:56:40.107Z,0.88
2023-02-02T11:58:25.200Z,0.80
2023-02-02T11:59:35.265Z,1.02
2023-02-02T12:00:50.811Z,0.70
2023-02-02T12:02:21.484Z,0.80
2023-02-02T12:03:37.391Z,0.90
2023-02-02T12:04:41.198Z,0.82
2023-02-02T12:05:46.897Z,0.80
2023-02-02T12:06:49.907Z,0.90
2023-02-02T12:07:52.783Z,0.90
2023-02-02T12:09:16.558Z,1.00
2023-02-02T12:10:52.111Z,0.80
2023-02-02T12:12:03.737Z,0.77
2023-02-02T12:13:29.873Z,0.88
2023-02-02T12:15:03.010Z,0.65
2023-02-02T12:16:09.477Z,0.73
2023-02-02T12:17:18.090Z,0.68
2023-02-02T12:18:35.959Z,1.00
2023-02-02T12:19:50.891Z,0.65
2023-02-02T12:20:59.234Z,0.70
2023-02-02T12:22:19.597Z,0.82
2023-02-02T12:23:38.316Z,0.75
2023-02-02T12:24:57.227Z,0.82
2023-02-02T12:26:11.978Z,0.77
2023-02-02T12:27:51.153Z,1.52
2023-02-02T12:29:08.603Z,0.60
2023-02-02T12:30:30.180Z,0.82
2023-02-02T12:32:00.411Z,0.70
2023-02-02T12:33:18.219Z,0.52
2023-02-02T12:34:26.726Z,0.63
2023-02-02T12:35:38.401Z,0.60
2023-02-02T12:37:03.806Z,0.65
2023-02-02T12:38:58.062Z,1.15
2023-02-02T12:40:19.644Z,0.77
2023-02-02T12:41:37.280Z,0.88
2023-02-02T12:43:03.456Z,1.48
2023-02-02T12:44:24.140Z,0.63
2023-02-02T12:45:33.063Z,0.55
2023-02-02T12:46:54.051Z,0.57
2023-02-02T12:48:09.740Z,0.70
2023-02-02T12:49:47.359Z,1.05
2023-02-02T12:51:15.289Z,0.50
2023-02-02T12:52:36.833Z,1.05
2023-02-02T12:54:34.564Z,0.68
2023-02-02T12:55:57.532Z,0.82
2023-02-02T12:57:19.345Z,0.80
2023-02-02T12:58:51.774Z,0.70
2023-02-02T13:00:03.433Z,0.70
2023-02-02T13:01:32.090Z,0.95
2023-02-02T13:02:37.984Z,0.73
2023-02-02T13:04:02.814Z,0.60
2023-02-02T13:05:11.296Z,0.60
2023-02-02T13:06:44.584Z,0.90
2023-02-02T13:07:56.282Z,0.88
2023-02-02T13:09:37.416Z,0.93
2023-02-02T13:10:44.698Z,0.70
2023-02-02T13:11:57.617Z,0.90
2023-02-02T13:13:02.663Z,0.77
2023-02-02T13:14:17.203Z,0.60
2023-02-02T13:15:24.103Z,0.77
2023-02-02T13:16:28.990Z,0.80
2023-02-02T13:17:34.737Z,0.90
2023-02-02T13:18:48.712Z,1.15
2023-02-02T13:19:58.675Z,0.80
2023-02-02T13:21:08.637Z,1.00
2023-02-02T13:22:20.212Z,1.05
2023-02-02T13:23:29.127Z,0.85
2023-02-02T13:24:36.426Z,0.70
2023-02-02T13:25:49.428Z,0.93
2023-02-02T13:26:52.998Z,0.50
2023-02-02T13:27:59.159Z,0.82
2023-02-02T13:29:09.627Z,0.82
2023-02-02T13:30:50.691Z,0.68
2023-02-02T13:32:33.136Z,1.00
2023-02-02T13:33:40.572Z,0.80
2023-02-02T13:34:46.607Z,0.88
2023-02-02T13:35:56.195Z,0.80
2023-02-02T13:37:08.654Z,1.00
2023-02-02T13:38:23.033Z,1.25
2023-02-02T13:39:53.398Z,0.90
2023-02-02T13:41:00.551Z,0.98
2023-02-02T13:42:17.047Z,1.10
2023-02-02T13:43:40.715Z,0.82
2023-02-02T13:44:58.062Z,0.95
2023-02-02T13:46:09.283Z,0.95
2023-02-02T13:47:42.351Z,1.10
2023-02-02T13:49:20.469Z,1.15
2023-02-02T13:50:30.348Z,1.13
2023-02-02T13:51:44.984Z,1.05
2023-02-02T13:53:13.673Z,1.08
2023-02-02T13:54:50.755Z,1.45
2023-02-02T13:56:27.489Z,1.33
2023-02-02T13:58:04.731Z,2.58
2023-02-02T13:59:07.702Z,1.20
2023-02-02T14:00:47.791Z,0.93
2023-02-02T14:01:52.550Z,1.00
2023-02-02T14:03:07.457Z,1.70
2023-02-02T14:04:25.596Z,1.10
2023-02-02T14:05:35.154Z,0.90
2023-02-02T14:07:07.230Z,1.00
2023-02-02T14:08:15.739Z,1.13
2023-02-02T14:09:19.520Z,1.48
2023-02-02T14:10:31.859Z,0.90
2023-02-02T14:11:39.013Z,1.20
2023-02-02T14:12:41.933Z,1.25
2023-02-02T14:14:06.768Z,1.05
2023-02-02T14:15:13.474Z,0.88
2023-02-02T14:16:47.544Z,1.30
2023-02-02T14:17:53.189Z,1.02
2023-02-02T14:18:56.897Z,1.10
2023-02-02T14:20:01.664Z,1.00
2023-02-02T14:21:04.599Z,1.20
2023-02-02T14:22:10.365Z,1.23
2023-02-02T14:23:51.408Z,1.20
2023-02-02T14:24:54.475Z,0.90
2023-02-02T14:26:09.646Z,1.17
2023-02-02T14:27:18.623Z,1.13
2023-02-02T14:28:46.196Z,1.33
2023-02-02T14:29:54.964Z,1.40
2023-02-02T14:31:34.846Z,0.90
2023-02-02T14:32:46.101Z,1.20
2023-02-02T14:33:49.162Z,0.90
2023-02-02T14:34:53.973Z,0.85
2023-02-02T14:36:03.135Z,1.10
2023-02-02T14:37:11.836Z,1.33
2023-02-02T14:38:26.417Z,1.30
2023-02-02T14:39:34.251Z,0.90
2023-02-02T14:40:40.139Z,1.35
2023-02-02T14:42:01.314Z,0.90
2023-02-02T14:43:45.405Z,1.33
2023-02-02T14:45:09.187Z,1.00
2023-02-02T14:46:14.738Z,0.93
2023-02-02T14:47:45.606Z,2.00
2023-02-02T14:49:07.922Z,1.33
2023-02-02T14:50:18.128Z,1.10
2023-02-02T14:51:27.252Z,1.13
2023-02-02T14:52:30.163Z,1.27
2023-02-02T14:53:37.619Z,1.35
2023-02-02T14:56:04.105Z,0.80
2023-02-02T14:57:30.259Z,1.02
2023-02-02T14:58:40.321Z,1.17
2023-02-02T14:59:47.334Z,1.02
2023-02-02T15:00:58.798Z,1.30
2023-02-02T15:02:22.877Z,3.15
2023-02-02T15:03:43.646Z,1.00
2023-02-02T15:04:49.162Z,1.10
2023-02-02T15:06:03.745Z,0.80
2023-02-02T15:07:24.927Z,1.50
2023-02-02T15:08:28.160Z,1.10
2023-02-02T15:09:38.685Z,0.90
2023-02-02T15:10:53.704Z,1.52
2023-02-02T15:12:01.175Z,1.20
2023-02-02T15:13:12.994Z,1.02
2023-02-02T15:14:18.414Z,1.42
2023-02-02T15:15:28.243Z,1.17
2023-02-02T15:16:33.698Z,1.35
2023-02-02T15:17:42.216Z,1.15
2023-02-02T15:18:48.498Z,1.85
2023-02-02T15:20:26.798Z,1.30
2023-02-02T15:21:34.808Z,2.20
2023-02-02T15:23:17.601Z,0.80
2023-02-02T15:24:26.426Z,1.10